createdAt,value
2018-07-24T00:01:36.807Z,86.2
2018-07-24T00:06:36.624Z,85
2018-07-24T00:11:36.673Z,85
2018-07-24T00:16:36.818Z,84.7
2018-07-24T00:21:48.484Z,84.5
2018-07-24T00:26:48.450Z,84.6
2018-07-24T00:31:48.219Z,84.8
2018-07-24T00:36:49.452Z,85.3
2018-07-24T00:41:48.462Z,85.6
2018-07-24T00:46:48.234Z,84.9
2018-07-24T00:51:48.232Z,85.8
2018-07-24T00:56:50.748Z,86
2018-07-24T01:01:50.464Z,85.7
2018-07-24T01:07:04.272Z,86.8
2018-07-24T01:12:04.115Z,86.6
2018-07-24T01:17:04.141Z,86.8
2018-07-24T01:22:04.024Z,87.6
2018-07-24T01:27:04.232Z,87.2
2018-07-24T01:32:04.015Z,86.8
2018-07-24T01:37:04.199Z,87.4
2018-07-24T01:42:04.224Z,86.9
2018-07-24T01:47:04.016Z,87.3
2018-07-24T01:52:04.020Z,86.9
2018-07-24T01:57:04.026Z,87.6
2018-07-24T02:02:04.022Z,88
2018-07-24T02:07:05.750Z,88.6
2018-07-24T02:12:05.663Z,86.9
2018-07-24T02:17:20.597Z,87
2018-07-24T02:22:20.303Z,87.1
2018-07-24T02:27:20.506Z,86.4
2018-07-24T02:32:20.432Z,88.1
2018-07-24T02:37:20.483Z,88.4
2018-07-24T02:42:20.506Z,88.8
2018-07-24T02:47:20.540Z,87.6
2018-07-24T02:52:20.388Z,87.8
2018-07-24T02:57:20.394Z,89
2018-07-24T03:02:34.174Z,87.9
2018-07-24T03:07:34.095Z,88
2018-07-24T03:12:35.167Z,88
2018-07-24T03:17:33.920Z,87.6
2018-07-24T03:22:33.910Z,86.9
2018-07-24T03:27:33.919Z,86.9
2018-07-24T03:32:33.912Z,88.5
2018-07-24T03:37:33.927Z,88.5
2018-07-24T03:42:33.925Z,87.9
2018-07-24T03:47:46.367Z,88.1
2018-07-24T03:52:46.297Z,88.9
2018-07-24T03:57:46.108Z,89.2
2018-07-24T04:02:46.235Z,89.1
2018-07-24T04:07:46.289Z,89.8
2018-07-24T04:12:46.321Z,90.4
2018-07-24T04:17:46.235Z,90.7
2018-07-24T04:22:46.206Z,90.9
2018-07-24T04:27:46.195Z,89.2
2018-07-24T04:32:57.877Z,89.2
2018-07-24T04:37:57.741Z,88.9
2018-07-24T04:42:57.770Z,89.9
2018-07-24T04:47:57.604Z,91.8
2018-07-24T04:52:57.611Z,90.4
2018-07-24T04:57:57.629Z,86.8
2018-07-24T05:02:57.630Z,86
2018-07-24T05:07:57.613Z,84.5
2018-07-24T05:12:57.776Z,84
2018-07-24T05:18:09.526Z,83.1
2018-07-24T05:23:09.253Z,82.7
2018-07-24T05:28:09.465Z,81.4
2018-07-24T05:33:09.495Z,80.2
2018-07-24T05:38:09.427Z,79.8
2018-07-24T05:43:09.454Z,79.1
2018-07-24T05:48:09.490Z,77.4
2018-07-24T05:53:11.414Z,77.6
2018-07-24T05:58:11.144Z,75.9
2018-07-24T06:03:23.544Z,75.6
2018-07-24T06:08:23.453Z,74.3
2018-07-24T06:13:23.484Z,74.1
2018-07-24T06:18:23.546Z,71
2018-07-24T06:23:23.465Z,70.7
2018-07-24T06:28:23.778Z,71.3
2018-07-24T06:33:23.933Z,71.6
2018-07-24T06:38:25.878Z,73.1
2018-07-24T06:43:25.531Z,72.1
2018-07-24T06:48:38.147Z,68.6
2018-07-24T06:53:37.843Z,65.8
2018-07-24T06:58:38.021Z,65.2
2018-07-24T07:03:38.000Z,64.5
2018-07-24T07:08:37.960Z,64.1
2018-07-24T07:13:38.039Z,61.6
2018-07-24T07:18:37.868Z,62.6
2018-07-24T07:23:37.844Z,64.3
2018-07-24T07:28:38.179Z,61.1
2018-07-24T07:33:49.658Z,62.8
2018-07-24T07:38:49.567Z,61.9
2018-07-24T07:43:49.646Z,59.9
2018-07-24T07:48:49.490Z,60
2018-07-24T07:53:49.529Z,59
2018-07-24T07:58:49.496Z,58.2
2018-07-24T08:03:49.350Z,58
2018-07-24T08:08:52.714Z,59.4
2018-07-24T08:13:52.593Z,58.3
2018-07-24T08:19:02.655Z,58.5
2018-07-24T08:24:02.387Z,56.7
2018-07-24T08:29:02.383Z,58.3
2018-07-24T08:34:02.610Z,58.5
2018-07-24T08:39:02.399Z,57.2
2018-07-24T08:44:02.393Z,56.2
2018-07-24T08:49:02.449Z,57.5
2018-07-24T08:54:02.974Z,55
2018-07-24T08:59:02.418Z,52.1
2018-07-24T09:04:13.514Z,51.2
2018-07-24T09:09:13.043Z,51.6
2018-07-24T09:14:13.043Z,51.9
2018-07-24T09:19:13.032Z,52.5
2018-07-24T09:24:13.139Z,51
2018-07-24T09:29:13.158Z,50.6
2018-07-24T09:34:13.162Z,49.9
2018-07-24T09:39:13.154Z,49.1
2018-07-24T09:44:13.317Z,49.3
2018-07-24T09:49:24.646Z,50.8
2018-07-24T09:54:24.348Z,49
2018-07-24T09:59:24.522Z,47
2018-07-24T10:04:24.528Z,47.7
2018-07-24T10:09:24.375Z,46.9
2018-07-24T10:14:24.319Z,47.3
2018-07-24T10:19:24.516Z,46.4
2018-07-24T10:24:24.582Z,45.7
2018-07-24T10:29:24.357Z,44.7
2018-07-24T10:34:36.311Z,46.1
2018-07-24T10:39:36.223Z,46.6
2018-07-24T10:44:36.066Z,42.9
2018-07-24T10:49:36.188Z,40.5
2018-07-24T10:54:36.415Z,40.4
2018-07-24T10:59:36.186Z,43.2
2018-07-24T11:04:36.218Z,42.6
2018-07-24T11:09:36.344Z,41
2018-07-24T11:14:36.341Z,39.8
2018-07-24T11:19:49.987Z,39
2018-07-24T11:24:49.734Z,38.9
2018-07-24T11:29:49.902Z,38.8
2018-07-24T11:34:49.733Z,39.5
2018-07-24T11:39:50.136Z,37.7
2018-07-24T11:44:49.987Z,39.1
2018-07-24T11:49:50.001Z,38.9
2018-07-24T11:54:50.053Z,37.1
2018-07-24T11:59:50.061Z,35.8
2018-07-24T12:05:02.153Z,35.9
2018-07-24T12:10:01.867Z,35.7
2018-07-24T12:15:02.072Z,36
2018-07-24T12:20:01.897Z,36.5
2018-07-24T12:25:02.007Z,38.2
2018-07-24T12:30:02.003Z,37.7
2018-07-24T12:35:02.011Z,36.7
2018-07-24T12:40:01.996Z,35.4
2018-07-24T12:45:02.174Z,34.8
2018-07-24T12:50:13.986Z,33.5
2018-07-24T12:55:13.669Z,34.8
2018-07-24T13:00:13.697Z,33.9
2018-07-24T13:05:13.709Z,34.8
2018-07-24T13:10:14.166Z,34.1
2018-07-24T13:15:13.716Z,34.5
2018-07-24T13:20:13.885Z,34.2
2018-07-24T13:25:13.917Z,35
2018-07-24T13:30:14.025Z,34.3
2018-07-24T13:35:25.286Z,33.9
2018-07-24T13:40:25.015Z,33
2018-07-24T13:45:25.016Z,33.9
2018-07-24T13:50:25.044Z,31.7
2018-07-24T13:55:25.027Z,32.7
2018-07-24T14:00:25.033Z,32.9
2018-07-24T14:05:25.293Z,32.6
2018-07-24T14:10:26.624Z,34.1
2018-07-24T14:15:26.557Z,34.7
2018-07-24T14:20:38.680Z,34.9
2018-07-24T14:25:38.386Z,35.1
2018-07-24T14:30:38.404Z,36.1
2018-07-24T14:35:38.393Z,36.6
2018-07-24T14:40:38.638Z,37.1
2018-07-24T14:45:38.834Z,35.8
2018-07-24T14:50:38.614Z,35.8
2018-07-24T14:55:38.626Z,37.7
2018-07-24T15:00:38.674Z,35.4
2018-07-24T15:05:49.336Z,35.5
2018-07-24T15:10:49.078Z,35.5
2018-07-24T15:15:49.115Z,35.3
2018-07-24T15:20:49.025Z,35.5
2018-07-24T15:25:51.484Z,35.2
2018-07-24T15:30:51.225Z,34.7
2018-07-24T15:35:51.221Z,34.7
2018-07-24T15:40:51.377Z,36
2018-07-24T15:45:51.547Z,35.5
2018-07-24T15:51:02.906Z,36.9
2018-07-24T15:56:02.594Z,35.4
2018-07-24T16:01:02.778Z,36.5
2018-07-24T16:06:02.682Z,36.5
2018-07-24T16:11:02.637Z,37.1
2018-07-24T16:16:02.646Z,36.2
2018-07-24T16:21:02.899Z,35.8
2018-07-24T16:26:02.626Z,36.7
2018-07-24T16:31:02.640Z,35.8
2018-07-24T16:36:14.327Z,37.1
2018-07-24T16:41:14.064Z,36.9
2018-07-24T16:46:14.219Z,37.6
2018-07-24T16:51:14.096Z,38
2018-07-24T16:56:14.476Z,38.7
2018-07-24T17:01:14.069Z,38.7
2018-07-24T17:06:14.080Z,39.3
2018-07-24T17:11:15.313Z,39.5
2018-07-24T17:16:15.217Z,40
2018-07-24T17:21:27.286Z,40.4
2018-07-24T17:26:27.400Z,41.5
2018-07-24T17:31:27.189Z,42.6
2018-07-24T17:36:26.951Z,43.9
2018-07-24T17:41:27.275Z,44.7
2018-07-24T17:46:27.202Z,45
2018-07-24T17:51:27.034Z,44.8
2018-07-24T17:56:27.051Z,45.4
2018-07-24T18:01:27.026Z,47.7
2018-07-24T18:06:38.572Z,47.6
2018-07-24T18:11:38.415Z,48.8
2018-07-24T18:16:38.306Z,49.6
2018-07-24T18:21:38.827Z,50.6
2018-07-24T18:26:38.435Z,50.9
2018-07-24T18:31:38.310Z,50.8
2018-07-24T18:36:38.378Z,50.7
2018-07-24T18:41:40.536Z,52.7
2018-07-24T18:46:39.790Z,53
2018-07-24T18:51:51.925Z,54.3
2018-07-24T18:56:51.669Z,55
2018-07-24T19:01:51.683Z,56
2018-07-24T19:06:51.638Z,56.4
2018-07-24T19:11:51.622Z,56.9
2018-07-24T19:16:51.648Z,56.4
2018-07-24T19:21:51.655Z,56.7
2018-07-24T19:26:52.401Z,57.4
2018-07-24T19:31:52.373Z,58
2018-07-24T19:36:52.129Z,59
2018-07-24T19:41:52.107Z,60.3
2018-07-24T19:46:52.166Z,60.1
2018-07-24T19:51:55.480Z,60.2
2018-07-24T19:56:55.247Z,61.5
2018-07-24T20:02:03.782Z,61.6
2018-07-24T20:07:03.505Z,63.2
2018-07-24T20:12:03.549Z,63.6
2018-07-24T20:17:03.482Z,63.1
2018-07-24T20:22:06.329Z,64
2018-07-24T20:27:03.523Z,64
2018-07-24T20:32:06.335Z,65.2
2018-07-24T20:42:07.491Z,66.6
2018-07-24T20:47:20.389Z,65.3
2018-07-24T20:52:20.093Z,65.8
2018-07-24T20:57:20.442Z,66.4
2018-07-24T21:02:20.129Z,67.8
2018-07-24T21:07:20.306Z,66.8
2018-07-24T21:12:20.141Z,67.2
2018-07-24T21:17:20.265Z,67.1
2018-07-24T21:22:20.102Z,67
2018-07-24T21:27:20.375Z,67
2018-07-24T21:32:21.472Z,67.2
2018-07-24T21:37:23.604Z,67.6
2018-07-24T21:42:21.208Z,68.2
2018-07-24T21:47:21.203Z,67
2018-07-24T21:52:21.396Z,68.5
2018-07-24T21:57:23.946Z,68.2
2018-07-24T22:02:23.673Z,68.5
2018-07-24T22:07:23.995Z,69.5
2018-07-24T22:12:23.761Z,70.6
2018-07-24T22:17:23.777Z,69.9
2018-07-24T22:22:23.676Z,68.7
2018-07-24T22:27:23.898Z,68.7
2018-07-24T22:32:27.009Z,69.8
2018-07-24T22:37:26.935Z,69.5
2018-07-24T22:42:38.932Z,71.3
2018-07-24T22:47:38.768Z,68.9
2018-07-24T22:52:38.799Z,69.5
2018-07-24T22:57:38.698Z,69.3
2018-07-24T23:02:38.875Z,70.5
2018-07-24T23:07:38.805Z,71.4
2018-07-24T23:12:38.835Z,71.6
2018-07-24T23:17:38.669Z,71.7
2018-07-24T23:22:38.801Z,71.4
2018-07-24T23:27:51.062Z,72.2
2018-07-24T23:32:50.987Z,72.1
2018-07-24T23:37:50.955Z,70.5
2018-07-24T23:42:50.776Z,71.7
2018-07-24T23:47:50.800Z,72.3
2018-07-24T23:52:51.301Z,71.3
2018-07-24T23:57:51.239Z,72.7
